createdAt,value
2018-05-18T00:01:50.046Z,79.30
2018-05-18T00:04:16.374Z,79.30
2018-05-18T00:06:42.689Z,79.40
2018-05-18T00:09:09.298Z,78.90
2018-05-18T00:11:35.719Z,78.60
2018-05-18T00:14:02.093Z,79.00
2018-05-18T00:16:28.437Z,79.30
2018-05-18T00:18:54.792Z,79.80
2018-05-18T00:21:21.117Z,79.60
2018-05-18T00:23:48.197Z,80.20
2018-05-18T00:26:14.627Z,80.00
2018-05-18T00:28:40.948Z,80.20
2018-05-18T00:31:08.029Z,80.60
2018-05-18T00:33:34.377Z,80.60
2018-05-18T00:36:00.745Z,80.70
2018-05-18T00:38:27.092Z,79.70
2018-05-18T00:40:53.413Z,79.90
2018-05-18T00:43:20.469Z,79.50
2018-05-18T00:45:46.823Z,79.40
2018-05-18T00:48:13.415Z,79.80
2018-05-18T00:50:40.646Z,80.50
2018-05-18T00:53:07.013Z,80.50
2018-05-18T00:55:40.005Z,80.50
2018-05-18T00:58:06.772Z,80.40
2018-05-18T01:00:33.381Z,80.30
2018-05-18T01:02:59.846Z,80.10
2018-05-18T01:05:26.912Z,80.10
2018-05-18T01:07:53.409Z,80.10
2018-05-18T01:10:19.725Z,79.90
2018-05-18T01:12:46.818Z,79.90
2018-05-18T01:15:13.198Z,79.90
2018-05-18T01:17:39.818Z,79.30
2018-05-18T01:20:06.193Z,79.00
2018-05-18T01:22:32.905Z,79.10
2018-05-18T01:24:59.964Z,79.80
2018-05-18T01:27:27.233Z,80.10
2018-05-18T01:29:53.538Z,80.00
2018-05-18T01:32:20.614Z,79.50
2018-05-18T01:34:46.969Z,79.50
2018-05-18T01:37:14.249Z,79.50
2018-05-18T01:39:40.630Z,79.50
2018-05-18T01:42:06.966Z,79.90
2018-05-18T01:44:34.187Z,80.20
2018-05-18T01:47:01.345Z,80.00
2018-05-18T01:49:28.404Z,80.30
2018-05-18T01:51:54.704Z,81.10
2018-05-18T01:54:21.039Z,80.50
2018-05-18T01:56:48.177Z,80.70
2018-05-18T01:59:14.501Z,80.70
2018-05-18T02:01:40.841Z,80.00
2018-05-18T02:04:07.178Z,79.70
2018-05-18T02:06:34.233Z,79.60
2018-05-18T02:09:01.273Z,79.20
2018-05-18T02:11:28.385Z,79.90
2018-05-18T02:13:54.689Z,79.60
2018-05-18T02:16:21.000Z,79.30
2018-05-18T02:18:48.098Z,78.50
2018-05-18T02:21:14.443Z,78.40
2018-05-18T02:23:42.257Z,77.30
2018-05-18T02:26:08.640Z,77.20
2018-05-18T02:28:36.525Z,76.70
2018-05-18T02:31:02.929Z,76.60
2018-05-18T02:33:29.270Z,75.40
2018-05-18T02:35:55.630Z,75.20
2018-05-18T02:38:22.834Z,75.40
2018-05-18T02:40:49.173Z,75.40
2018-05-18T02:43:15.542Z,75.60
2018-05-18T02:45:42.614Z,75.60
2018-05-18T02:48:08.945Z,75.40
2018-05-18T02:50:36.107Z,76.60
2018-05-18T02:53:02.476Z,76.50
2018-05-18T02:55:28.782Z,76.90
2018-05-18T02:57:55.501Z,76.90
2018-05-18T03:00:21.909Z,77.20
2018-05-18T03:02:49.026Z,76.50
2018-05-18T03:05:15.388Z,76.50
2018-05-18T03:07:42.509Z,76.10
2018-05-18T03:10:08.849Z,76.10
2018-05-18T03:12:35.216Z,75.70
2018-05-18T03:15:01.555Z,76.10
2018-05-18T03:17:28.124Z,76.50
2018-05-18T03:19:55.161Z,76.80
2018-05-18T03:22:21.538Z,76.80
2018-05-18T03:24:47.869Z,77.60
2018-05-18T03:27:14.481Z,78.00
2018-05-18T03:29:40.865Z,77.30
2018-05-18T03:32:07.248Z,76.90
2018-05-18T03:34:33.668Z,76.50
2018-05-18T03:37:00.025Z,76.70
2018-05-18T03:39:26.369Z,76.90
2018-05-18T03:41:52.705Z,77.20
2018-05-18T03:44:19.761Z,77.60
2018-05-18T03:46:47.121Z,77.80
2018-05-18T03:49:13.478Z,77.70
2018-05-18T03:51:39.845Z,77.80
2018-05-18T03:54:07.005Z,78.10
2018-05-18T03:56:33.374Z,78.10
2018-05-18T03:58:59.685Z,78.30
2018-05-18T04:01:38.961Z,78.50
2018-05-18T04:04:17.600Z,78.40
2018-05-18T04:06:56.114Z,78.40
2018-05-18T04:09:22.533Z,78.60
2018-05-18T04:11:48.854Z,78.80
2018-05-18T04:14:15.181Z,79.20
2018-05-18T04:16:42.451Z,78.60
2018-05-18T04:19:09.677Z,78.50
2018-05-18T04:21:36.166Z,78.40
2018-05-18T04:24:02.534Z,78.30
2018-05-18T04:26:28.833Z,78.60
2018-05-18T04:28:55.160Z,78.70
2018-05-18T04:31:21.513Z,78.60
2018-05-18T04:33:48.579Z,78.80
2018-05-18T04:36:16.169Z,78.70
2018-05-18T04:38:42.589Z,78.80
2018-05-18T04:41:08.848Z,78.90
2018-05-18T04:43:35.178Z,78.70
2018-05-18T04:46:01.547Z,79.60
2018-05-18T04:48:28.613Z,77.80
2018-05-18T04:50:55.025Z,77.80
2018-05-18T04:53:21.273Z,77.50
2018-05-18T04:55:47.583Z,77.10
2018-05-18T04:58:14.711Z,75.50
2018-05-18T05:00:41.212Z,75.50
2018-05-18T05:03:07.609Z,75.50
2018-05-18T05:05:34.815Z,76.50
2018-05-18T05:08:01.150Z,76.40
2018-05-18T05:10:27.513Z,76.10
2018-05-18T05:12:54.570Z,76.20
2018-05-18T05:15:21.621Z,76.10
2018-05-18T05:17:48.300Z,76.00
2018-05-18T05:20:14.586Z,75.20
2018-05-18T05:22:40.909Z,76.20
2018-05-18T05:25:08.053Z,75.70
2018-05-18T05:27:35.365Z,75.20
2018-05-18T05:30:02.478Z,75.00
2018-05-18T05:32:28.909Z,75.20
2018-05-18T05:34:55.321Z,75.70
2018-05-18T05:37:22.879Z,73.90
2018-05-18T05:39:50.087Z,74.60
2018-05-18T05:42:16.406Z,74.50
2018-05-18T05:44:43.329Z,75.00
2018-05-18T05:47:09.870Z,74.40
2018-05-18T05:49:36.321Z,73.30
2018-05-18T05:52:02.646Z,72.80
2018-05-18T05:54:29.685Z,73.70
2018-05-18T05:56:56.185Z,73.70
2018-05-18T05:59:22.540Z,73.20
2018-05-18T06:01:48.881Z,72.70
2018-05-18T06:04:15.185Z,69.40
2018-05-18T06:06:42.345Z,68.10
2018-05-18T06:09:08.713Z,68.00
2018-05-18T06:11:35.881Z,68.60
2018-05-18T06:14:02.286Z,68.70
2018-05-18T06:16:29.279Z,66.80
2018-05-18T06:18:55.656Z,64.80
2018-05-18T06:21:22.042Z,63.80
2018-05-18T06:23:48.363Z,62.90
2018-05-18T06:26:14.726Z,63.00
2018-05-18T06:28:41.154Z,62.40
2018-05-18T06:31:07.537Z,62.20
2018-05-18T06:33:33.874Z,61.40
2018-05-18T06:36:00.592Z,62.70
2018-05-18T06:38:26.963Z,62.50
2018-05-18T06:40:53.357Z,62.70
2018-05-18T06:43:20.593Z,61.10
2018-05-18T06:45:46.917Z,61.10
2018-05-18T06:48:13.277Z,59.80
2018-05-18T06:50:39.633Z,60.20
2018-05-18T06:53:06.884Z,57.10
2018-05-18T06:55:33.344Z,56.90
2018-05-18T06:58:00.452Z,58.60
2018-05-18T07:00:26.935Z,58.50
2018-05-18T07:02:53.978Z,57.20
2018-05-18T07:05:21.096Z,56.60
2018-05-18T07:07:47.418Z,56.50
2018-05-18T07:10:13.761Z,56.50
2018-05-18T07:12:40.153Z,55.40
2018-05-18T07:15:06.746Z,55.10
2018-05-18T07:17:33.981Z,53.40
2018-05-18T07:20:00.359Z,53.30
2018-05-18T07:22:26.670Z,51.40
2018-05-18T07:24:53.785Z,49.90
2018-05-18T07:27:20.133Z,49.80
2018-05-18T07:29:46.537Z,50.40
2018-05-18T07:32:13.618Z,49.00
2018-05-18T07:34:39.945Z,49.00
2018-05-18T07:37:06.817Z,48.90
2018-05-18T07:39:33.893Z,46.50
2018-05-18T07:42:00.943Z,47.60
2018-05-18T07:44:27.283Z,47.60
2018-05-18T07:46:54.562Z,46.50
2018-05-18T07:49:20.865Z,46.50
2018-05-18T07:51:47.209Z,47.30
2018-05-18T07:54:13.519Z,45.20
2018-05-18T07:56:40.813Z,42.40
2018-05-18T07:59:07.189Z,42.30
2018-05-18T08:01:33.526Z,42.30
2018-05-18T08:04:00.721Z,44.10
2018-05-18T08:06:27.173Z,46.50
2018-05-18T08:08:53.525Z,46.80
2018-05-18T08:11:19.876Z,46.70
2018-05-18T08:13:46.169Z,47.40
2018-05-18T08:16:13.314Z,46.70
2018-05-18T08:18:39.684Z,46.70
2018-05-18T08:21:06.097Z,47.10
2018-05-18T08:23:39.285Z,48.00
2018-05-18T08:26:05.722Z,48.00
2018-05-18T08:28:44.289Z,49.00
2018-05-18T08:31:10.718Z,46.80
2018-05-18T08:33:37.160Z,46.40
2018-05-18T08:36:03.525Z,45.50
2018-05-18T08:38:29.857Z,46.60
2018-05-18T08:40:56.906Z,45.30
2018-05-18T08:43:23.272Z,45.20
2018-05-18T08:45:49.631Z,44.20
2018-05-18T08:48:16.165Z,42.80
2018-05-18T08:50:42.508Z,44.50
2018-05-18T08:53:09.021Z,43.30
2018-05-18T08:55:35.317Z,44.20
2018-05-18T08:58:02.542Z,44.50
2018-05-18T09:00:28.959Z,44.50
2018-05-18T09:02:55.306Z,45.00
2018-05-18T09:05:21.613Z,45.10
2018-05-18T09:07:49.022Z,43.60
2018-05-18T09:10:15.329Z,43.50
2018-05-18T09:12:41.655Z,44.50
2018-05-18T09:15:08.101Z,43.50
2018-05-18T09:17:34.513Z,42.60
2018-05-18T09:20:00.853Z,42.90
2018-05-18T09:22:27.173Z,43.30
2018-05-18T09:24:53.501Z,42.70
2018-05-18T09:27:19.857Z,42.20
2018-05-18T09:29:46.205Z,42.10
2018-05-18T09:32:13.273Z,42.20
2018-05-18T09:34:39.627Z,42.20
2018-05-18T09:37:05.949Z,42.30
2018-05-18T09:39:32.345Z,43.10
2018-05-18T09:41:58.616Z,43.10
2018-05-18T09:44:24.934Z,42.60
2018-05-18T09:46:51.671Z,41.40
2018-05-18T09:49:17.994Z,42.00
2018-05-18T09:51:44.307Z,42.10
2018-05-18T09:54:10.855Z,42.30
2018-05-18T09:56:37.106Z,41.90
2018-05-18T09:59:03.489Z,42.10
2018-05-18T10:01:30.573Z,42.60
2018-05-18T10:03:56.929Z,42.50
2018-05-18T10:06:23.336Z,42.40
2018-05-18T10:08:49.647Z,40.90
2018-05-18T10:11:15.976Z,42.30
2018-05-18T10:13:42.380Z,42.10
2018-05-18T10:16:08.733Z,41.60
2018-05-18T10:18:35.054Z,41.10
2018-05-18T10:21:02.157Z,41.60
2018-05-18T10:23:28.508Z,41.60
2018-05-18T10:25:54.809Z,40.30
2018-05-18T10:28:25.160Z,39.40
2018-05-18T10:30:51.461Z,40.90
2018-05-18T10:33:18.522Z,40.50
2018-05-18T10:35:44.861Z,40.50
2018-05-18T10:38:11.454Z,40.30
2018-05-18T10:40:37.830Z,40.50
2018-05-18T10:43:04.152Z,40.90
2018-05-18T10:45:30.485Z,40.60
2018-05-18T10:47:56.989Z,42.20
2018-05-18T10:50:23.369Z,40.90
2018-05-18T10:52:49.721Z,40.50
2018-05-18T10:55:16.769Z,40.00
2018-05-18T10:57:44.372Z,40.10
2018-05-18T11:00:10.789Z,40.00
2018-05-18T11:02:38.017Z,40.90
2018-05-18T11:05:05.117Z,40.60
2018-05-18T11:07:31.695Z,40.50
2018-05-18T11:09:58.006Z,39.70
2018-05-18T11:12:24.350Z,40.00
2018-05-18T11:14:50.657Z,39.90
2018-05-18T11:17:17.229Z,39.10
2018-05-18T11:19:44.330Z,37.60
2018-05-18T11:22:11.473Z,37.80
2018-05-18T11:24:38.661Z,38.70
2018-05-18T11:27:05.208Z,38.60
2018-05-18T11:29:31.530Z,38.50
2018-05-18T11:31:57.886Z,38.90
2018-05-18T11:34:24.938Z,39.20
2018-05-18T11:36:51.277Z,39.20
2018-05-18T11:39:18.377Z,37.10
2018-05-18T11:41:44.690Z,36.40
2018-05-18T11:44:11.014Z,38.30
2018-05-18T11:46:37.358Z,38.40
2018-05-18T11:49:03.677Z,39.20
2018-05-18T11:51:30.021Z,39.20
2018-05-18T11:53:57.090Z,38.20
2018-05-18T11:56:23.456Z,38.10
2018-05-18T11:58:49.812Z,38.00
2018-05-18T12:01:16.127Z,37.60
2018-05-18T12:03:42.471Z,38.00
2018-05-18T12:06:08.909Z,38.80
2018-05-18T12:08:35.237Z,39.00
2018-05-18T12:11:01.588Z,37.60
2018-05-18T12:13:27.925Z,37.60
2018-05-18T12:15:54.265Z,36.90
2018-05-18T12:18:22.169Z,36.20
2018-05-18T12:20:49.275Z,36.70
2018-05-18T12:23:15.609Z,36.70
2018-05-18T12:25:41.997Z,36.50
2018-05-18T12:28:08.739Z,35.40
2018-05-18T12:30:35.039Z,33.90
2018-05-18T12:33:02.110Z,34.30
2018-05-18T12:35:28.431Z,34.20
2018-05-18T12:37:55.710Z,33.60
2018-05-18T12:40:22.013Z,33.60
2018-05-18T12:42:49.077Z,33.70
2018-05-18T12:45:15.449Z,33.70
2018-05-18T12:47:41.894Z,34.20
2018-05-18T12:50:08.209Z,36.50
2018-05-18T12:52:34.553Z,35.00
2018-05-18T12:55:00.940Z,33.40
2018-05-18T12:57:27.353Z,35.10
2018-05-18T12:59:53.661Z,34.10
2018-05-18T13:02:19.967Z,33.80
2018-05-18T13:04:46.377Z,35.70
2018-05-18T13:07:12.868Z,36.10
2018-05-18T13:09:39.955Z,38.00
2018-05-18T13:12:06.309Z,38.00
2018-05-18T13:14:32.613Z,35.10
2018-05-18T13:16:58.929Z,36.30
2018-05-18T13:19:25.290Z,35.30
2018-05-18T13:21:51.613Z,37.10
2018-05-18T13:24:17.965Z,37.40
2018-05-18T13:26:44.281Z,40.00
2018-05-18T13:29:10.813Z,40.20
2018-05-18T13:31:37.149Z,40.00
2018-05-18T13:34:03.488Z,39.90
2018-05-18T13:36:29.823Z,40.90
2018-05-18T13:38:56.137Z,40.40
2018-05-18T13:41:22.573Z,40.30
2018-05-18T13:43:48.897Z,40.20
2018-05-18T13:46:15.277Z,41.10
2018-05-18T13:48:41.710Z,40.50
2018-05-18T13:51:08.037Z,40.30
2018-05-18T13:53:34.377Z,40.50
2018-05-18T13:56:00.717Z,39.60
2018-05-18T13:58:27.985Z,38.80
2018-05-18T14:00:54.316Z,38.70
2018-05-18T14:03:20.689Z,39.70
2018-05-18T14:05:47.785Z,40.60
2018-05-18T14:08:14.994Z,41.60
2018-05-18T14:10:41.434Z,41.50
2018-05-18T14:13:07.758Z,42.40
2018-05-18T14:15:34.069Z,42.10
2018-05-18T14:18:00.520Z,39.50
2018-05-18T14:20:27.235Z,39.80
2018-05-18T14:22:53.541Z,39.80
2018-05-18T14:25:20.598Z,39.50
2018-05-18T14:27:47.006Z,39.40
2018-05-18T14:30:14.053Z,40.70
2018-05-18T14:32:41.161Z,39.20
2018-05-18T14:35:07.533Z,39.10
2018-05-18T14:37:34.669Z,38.50
2018-05-18T14:40:01.004Z,39.10
2018-05-18T14:42:27.391Z,39.00
2018-05-18T14:44:53.694Z,42.30
2018-05-18T14:47:20.203Z,40.70
2018-05-18T14:49:46.561Z,39.20
2018-05-18T14:52:12.995Z,39.00
2018-05-18T14:54:39.321Z,39.20
2018-05-18T14:57:05.692Z,38.90
2018-05-18T14:59:32.013Z,38.70
2018-05-18T15:01:58.338Z,39.90
2018-05-18T15:04:24.731Z,39.50
2018-05-18T15:06:51.845Z,42.60
2018-05-18T15:09:18.151Z,43.30
2018-05-18T15:11:44.663Z,42.90
2018-05-18T15:14:11.049Z,43.80
2018-05-18T15:16:37.381Z,47.30
2018-05-18T15:19:03.725Z,50.10
2018-05-18T15:21:30.081Z,49.00
2018-05-18T15:23:56.429Z,50.70
2018-05-18T15:26:22.815Z,50.70
2018-05-18T15:28:49.181Z,50.10
2018-05-18T15:31:15.581Z,51.60
2018-05-18T15:33:42.073Z,50.90
2018-05-18T15:36:08.446Z,51.10
2018-05-18T15:38:34.757Z,53.80
2018-05-18T15:41:01.102Z,53.20
2018-05-18T15:43:27.421Z,52.30
2018-05-18T15:45:53.721Z,55.80
2018-05-18T15:48:20.201Z,57.70
2018-05-18T15:50:46.599Z,58.40
2018-05-18T15:53:12.937Z,57.00
2018-05-18T15:55:39.281Z,59.50
2018-05-18T15:58:06.645Z,56.50
2018-05-18T16:00:33.057Z,56.40
2018-05-18T16:02:59.381Z,57.20
2018-05-18T16:05:25.690Z,59.10
2018-05-18T16:07:52.521Z,59.30
2018-05-18T16:10:18.908Z,59.60
2018-05-18T16:12:45.434Z,60.10
2018-05-18T16:15:12.064Z,60.50
2018-05-18T16:17:38.633Z,61.30
2018-05-18T16:20:04.967Z,61.80
2018-05-18T16:22:31.341Z,62.20
2018-05-18T16:24:57.642Z,63.10
2018-05-18T16:27:24.681Z,63.80
2018-05-18T16:29:51.060Z,63.80
2018-05-18T16:32:17.369Z,64.50
2018-05-18T16:34:43.757Z,65.00
2018-05-18T16:37:10.101Z,64.90
2018-05-18T16:39:36.422Z,63.80
2018-05-18T16:42:02.752Z,64.30
2018-05-18T16:44:29.079Z,64.90
2018-05-18T16:46:56.885Z,65.50
2018-05-18T16:49:23.256Z,65.30
2018-05-18T16:51:49.645Z,65.70
2018-05-18T16:54:15.973Z,65.80
2018-05-18T16:56:43.223Z,69.30
2018-05-18T16:59:10.362Z,69.70
2018-05-18T17:01:37.433Z,70.40
2018-05-18T17:04:04.526Z,69.50
2018-05-18T17:06:30.940Z,69.40
2018-05-18T17:08:58.058Z,64.00
2018-05-18T17:11:25.194Z,65.30
2018-05-18T17:13:51.598Z,65.40
2018-05-18T17:16:17.996Z,66.60
2018-05-18T17:18:44.462Z,65.90
2018-05-18T17:21:10.854Z,66.70
2018-05-18T17:23:37.173Z,68.40
2018-05-18T17:26:04.281Z,71.10
2018-05-18T17:28:30.915Z,71.00
2018-05-18T17:30:57.219Z,70.20
2018-05-18T17:33:23.601Z,71.50
2018-05-18T17:35:50.649Z,71.40
2018-05-18T17:38:17.193Z,71.40
2018-05-18T17:40:44.374Z,69.70
2018-05-18T17:43:10.748Z,69.70
2018-05-18T17:45:37.130Z,68.60
2018-05-18T17:48:03.525Z,68.70
2018-05-18T17:50:29.885Z,68.80
2018-05-18T17:52:56.191Z,69.30
2018-05-18T17:55:25.696Z,69.00
2018-05-18T17:57:52.805Z,68.30
2018-05-18T18:00:19.148Z,67.60
2018-05-18T18:02:45.505Z,67.50
2018-05-18T18:05:11.974Z,66.90
2018-05-18T18:07:38.564Z,67.60
2018-05-18T18:10:04.909Z,68.50
2018-05-18T18:12:31.242Z,69.60
2018-05-18T18:14:58.363Z,68.90
2018-05-18T18:17:24.774Z,68.80
2018-05-18T18:19:51.117Z,69.10
2018-05-18T18:22:17.953Z,68.90
2018-05-18T18:24:45.141Z,67.90
2018-05-18T18:27:11.795Z,67.80
2018-05-18T18:29:38.853Z,66.70
2018-05-18T18:32:05.952Z,66.80
2018-05-18T18:34:32.629Z,66.70
2018-05-18T18:36:59.769Z,66.30
2018-05-18T18:39:26.116Z,66.30
2018-05-18T18:41:52.469Z,66.10
2018-05-18T18:44:18.793Z,65.20
2018-05-18T18:46:45.181Z,65.40
2018-05-18T18:49:11.521Z,63.80
2018-05-18T18:51:37.829Z,63.20
2018-05-18T18:54:04.182Z,62.80
2018-05-18T18:56:30.528Z,63.20
2018-05-18T18:58:57.616Z,62.20
2018-05-18T19:01:23.965Z,62.20
2018-05-18T19:03:51.516Z,64.50
2018-05-18T19:06:17.867Z,64.40
2018-05-18T19:08:44.213Z,63.30
2018-05-18T19:11:10.540Z,62.80
2018-05-18T19:13:36.853Z,62.30
2018-05-18T19:16:03.214Z,62.50
2018-05-18T19:18:30.277Z,62.70
2018-05-18T19:20:56.585Z,62.70
2018-05-18T19:23:22.957Z,63.60
2018-05-18T19:25:49.257Z,63.10
2018-05-18T19:28:16.381Z,64.20
2018-05-18T19:30:42.766Z,64.20
2018-05-18T19:33:09.069Z,64.70
2018-05-18T19:35:36.159Z,64.40
2018-05-18T19:38:02.538Z,64.10
2018-05-18T19:40:28.893Z,66.40
2018-05-18T19:42:55.272Z,67.30
2018-05-18T19:45:21.670Z,67.40
2018-05-18T19:47:48.125Z,67.60
2018-05-18T19:50:14.465Z,67.80
2018-05-18T19:52:40.772Z,68.10
2018-05-18T19:55:07.110Z,68.30
2018-05-18T19:57:33.617Z,68.30
2018-05-18T19:59:59.982Z,69.00
2018-05-18T20:02:26.358Z,68.20
2018-05-18T20:04:52.692Z,68.60
2018-05-18T20:07:19.141Z,69.40
2018-05-18T20:09:46.197Z,70.20
2018-05-18T20:12:13.441Z,69.60
2018-05-18T20:14:39.690Z,69.50
2018-05-18T20:17:06.193Z,70.30
2018-05-18T20:19:32.515Z,70.20
2018-05-18T20:21:58.849Z,70.40
2018-05-18T20:24:25.178Z,70.00
2018-05-18T20:26:51.490Z,71.30
2018-05-18T20:29:17.849Z,72.30
2018-05-18T20:31:44.998Z,72.30
2018-05-18T20:34:11.404Z,72.30
2018-05-18T20:36:38.473Z,72.80
2018-05-18T20:39:04.821Z,73.30
2018-05-18T20:41:31.165Z,72.60
2018-05-18T20:43:57.476Z,72.80
2018-05-18T20:46:24.613Z,73.50
2018-05-18T20:48:50.962Z,73.40
2018-05-18T20:51:18.153Z,73.70
2018-05-18T20:53:44.558Z,73.70
2018-05-18T20:56:11.605Z,74.40
2018-05-18T20:58:38.010Z,74.30
2018-05-18T21:01:04.273Z,74.80
2018-05-18T21:03:30.664Z,74.70
2018-05-18T21:05:56.900Z,74.70
2018-05-18T21:08:23.553Z,74.80
2018-05-18T21:10:50.616Z,75.30
2018-05-18T21:13:16.981Z,75.30
2018-05-18T21:15:43.345Z,75.80
2018-05-18T21:18:09.882Z,75.70
2018-05-18T21:20:36.197Z,75.60
2018-05-18T21:23:02.511Z,75.70
2018-05-18T21:25:28.833Z,75.90
2018-05-18T21:27:55.441Z,75.90
2018-05-18T21:30:22.498Z,76.00
2018-05-18T21:32:48.878Z,75.90
2018-05-18T21:35:15.189Z,76.20
2018-05-18T21:37:41.529Z,76.70
2018-05-18T21:40:07.870Z,76.70
2018-05-18T21:42:34.184Z,76.40
2018-05-18T21:45:00.517Z,76.50
2018-05-18T21:47:27.093Z,76.50
2018-05-18T21:49:54.138Z,76.90
2018-05-18T21:52:21.213Z,76.50
2018-05-18T21:54:47.581Z,76.40
2018-05-18T21:57:14.277Z,76.90
2018-05-18T21:59:41.321Z,76.90
2018-05-18T22:02:08.416Z,77.20
2018-05-18T22:04:34.764Z,77.10
2018-05-18T22:07:01.185Z,77.10
2018-05-18T22:09:27.569Z,76.80
2018-05-18T22:11:54.629Z,76.60
2018-05-18T22:14:20.977Z,76.60
2018-05-18T22:16:47.339Z,76.60
2018-05-18T22:19:13.795Z,76.50
2018-05-18T22:21:40.857Z,76.90
2018-05-18T22:24:07.927Z,76.60
2018-05-18T22:26:34.264Z,76.60
2018-05-18T22:29:00.579Z,76.50
2018-05-18T22:31:26.890Z,76.30
2018-05-18T22:33:53.997Z,76.40
2018-05-18T22:36:20.329Z,76.30
2018-05-18T22:38:46.749Z,75.90
2018-05-18T22:41:13.068Z,75.50
2018-05-18T22:43:39.388Z,75.50
2018-05-18T22:46:05.693Z,75.60
2018-05-18T22:48:32.793Z,75.40
2018-05-18T22:50:59.113Z,75.40
2018-05-18T22:53:25.449Z,76.00
2018-05-18T22:55:51.802Z,75.60
2018-05-18T22:58:18.153Z,75.70
2018-05-18T23:00:44.560Z,76.20
2018-05-18T23:03:10.917Z,76.10
2018-05-18T23:05:37.297Z,75.60
2018-05-18T23:08:03.669Z,75.80
2018-05-18T23:10:30.009Z,75.60
2018-05-18T23:12:56.349Z,76.10
2018-05-18T23:15:23.573Z,76.40
2018-05-18T23:17:50.192Z,76.30
2018-05-18T23:20:16.569Z,75.90
2018-05-18T23:22:43.658Z,75.30
2018-05-18T23:25:09.967Z,75.30
2018-05-18T23:27:36.614Z,75.20
2018-05-18T23:30:02.982Z,75.20
2018-05-18T23:32:29.298Z,75.10
2018-05-18T23:34:55.641Z,75.40
2018-05-18T23:37:22.162Z,75.90
2018-05-18T23:39:48.693Z,75.00
2018-05-18T23:42:15.034Z,75.00
2018-05-18T23:44:41.341Z,75.00
2018-05-18T23:47:07.674Z,74.60
2018-05-18T23:49:34.014Z,75.50
2018-05-18T23:52:00.337Z,75.80
2018-05-18T23:54:27.418Z,76.60
2018-05-18T23:56:53.740Z,76.60
2018-05-18T23:59:20.058Z,76.80
